Time;durP1;ratioP1;P1;durP2;ratioP2;P2;SDS_P1;SDS_P2;PMS_P1;PMS_P2;Temp;Humidity;BMP_temperature;BMP_pressure;BME280_temperature;BME280_humidity;BME280_pressure;Samples;Min_cycle;Max_cycle;Signal;HPM_P1;HPM_P2
2022/04/20 00:01:13;;;;;;;1.85;0.85;;;6.20;99.90;;;;;;6276542;22;20034;-82
2022/04/20 00:03:39;;;;;;;1.55;0.77;;;6.20;99.90;;;;;;6248820;22;20045;-82
2022/04/20 00:06:05;;;;;;;2.33;1.05;;;6.20;99.90;;;;;;6276646;22;20031;-83
2022/04/20 00:08:32;;;;;;;6.88;1.33;;;6.20;99.90;;;;;;6276469;22;20024;-82
2022/04/20 00:10:58;;;;;;;1.15;0.70;;;6.20;99.90;;;;;;6276431;22;20024;-82
2022/04/20 00:13:24;;;;;;;2.20;1.00;;;6.10;99.90;;;;;;6276551;22;20023;-82
2022/04/20 00:15:50;;;;;;;2.30;0.77;;;6.10;99.90;;;;;;6276851;22;20030;-83
2022/04/20 00:18:16;;;;;;;2.65;0.82;;;6.60;99.90;;;;;;6276680;22;20020;-83
2022/04/20 00:20:41;;;;;;;1.70;1.00;;;6.00;99.90;;;;;;6276304;22;20047;-82
2022/04/20 00:23:07;;;;;;;1.23;0.82;;;6.50;99.90;;;;;;6276279;22;20349;-83
2022/04/20 00:25:33;;;;;;;1.67;0.88;;;6.50;99.90;;;;;;6276663;22;20434;-82
2022/04/20 00:27:59;;;;;;;1.30;0.70;;;6.10;99.90;;;;;;6276227;22;20457;-82
2022/04/20 00:30:25;;;;;;;1.15;0.70;;;5.90;99.90;;;;;;6278237;22;20055;-83
2022/04/20 00:32:55;;;;;;;1.50;0.77;;;6.50;99.90;;;;;;6280473;22;20073;-83
2022/04/20 00:35:21;;;;;;;2.38;0.85;;;5.80;99.90;;;;;;6276527;22;20020;-82
2022/04/20 00:37:48;;;;;;;1.83;0.90;;;5.80;99.90;;;;;;6249079;22;20026;-83
2022/04/20 00:40:14;;;;;;;1.33;0.60;;;6.30;99.90;;;;;;6276467;22;20397;-83
2022/04/20 00:42:41;;;;;;;1.77;0.80;;;5.70;99.90;;;;;;6276438;22;20061;-82
2022/04/20 00:45:11;;;;;;;2.00;0.90;;;5.60;99.90;;;;;;6276256;22;20377;-82
2022/04/20 00:47:39;;;;;;;2.13;0.90;;;5.70;99.90;;;;;;6276338;22;20068;-82
2022/04/20 00:50:06;;;;;;;1.40;0.80;;;5.80;99.90;;;;;;6248878;22;20038;-82
2022/04/20 00:52:32;;;;;;;3.33;0.98;;;5.60;99.90;;;;;;6275851;22;20024;-82
2022/04/20 00:54:59;;;;;;;1.70;0.90;;;5.60;99.90;;;;;;6275881;22;20058;-82
2022/04/20 00:57:25;;;;;;;2.30;0.80;;;5.50;99.90;;;;;;6276246;22;20050;-82
2022/04/20 00:59:53;;;;;;;1.70;0.95;;;5.60;99.90;;;;;;6276240;22;20102;-82
2022/04/20 01:02:21;;;;;;;1.48;0.90;;;5.80;99.90;;;;;;6276554;22;20319;-82
2022/04/20 01:04:47;;;;;;;2.42;1.00;;;5.50;99.90;;;;;;6276020;22;20026;-82
2022/04/20 01:07:13;;;;;;;1.40;0.70;;;5.50;99.90;;;;;;6276055;22;20087;-82
2022/04/20 01:09:41;;;;;;;1.80;0.82;;;5.50;99.90;;;;;;6276295;22;20117;-82
2022/04/20 01:12:07;;;;;;;1.25;0.80;;;5.50;99.90;;;;;;6276603;22;20024;-82
2022/04/20 01:15:00;;;;;;;2.33;1.05;;;5.40;99.90;;;;;;6276112;22;20011;-82
2022/04/20 01:17:34;;;;;;;2.35;0.77;;;5.40;99.90;;;;;;6276188;22;20349;-82
2022/04/20 01:20:00;;;;;;;1.90;0.90;;;5.40;99.90;;;;;;6275701;22;20050;-82
2022/04/20 01:22:26;;;;;;;3.50;1.17;;;5.40;99.90;;;;;;6275849;22;20030;-82
2022/04/20 01:24:51;;;;;;;1.42;0.88;;;5.30;99.90;;;;;;6276219;22;20027;-82
2022/04/20 01:27:17;;;;;;;2.05;1.00;;;5.30;99.90;;;;;;6275701;22;20453;-82
2022/04/20 01:29:44;;;;;;;2.47;1.20;;;5.30;99.90;;;;;;6275798;22;20054;-82
2022/04/20 01:32:10;;;;;;;1.85;1.00;;;5.70;99.90;;;;;;6276139;22;20023;-83
2022/04/20 01:34:38;;;;;;;1.40;0.88;;;5.20;99.90;;;;;;6276156;22;20016;-82
2022/04/20 01:37:04;;;;;;;2.72;0.77;;;5.20;99.90;;;;;;6275723;22;20028;-82
2022/04/20 01:39:30;;;;;;;2.28;1.00;;;5.20;99.90;;;;;;6276073;22;20024;-82
2022/04/20 01:41:56;;;;;;;1.10;0.70;;;5.20;99.90;;;;;;6276033;22;20349;-82
2022/04/20 01:44:21;;;;;;;1.30;0.90;;;5.20;99.90;;;;;;6248953;22;20020;-81
2022/04/20 01:46:47;;;;;;;1.90;1.00;;;5.50;99.90;;;;;;6276068;22;20020;-82
2022/04/20 01:49:12;;;;;;;1.75;1.02;;;5.20;99.90;;;;;;6275548;22;20523;-82
2022/04/20 01:51:47;;;;;;;1.80;0.82;;;5.10;99.90;;;;;;6275414;22;20020;-82
2022/04/20 01:54:13;;;;;;;1.75;1.00;;;5.10;99.90;;;;;;6276132;22;20019;-82
2022/04/20 01:56:42;;;;;;;1.98;0.82;;;5.00;99.90;;;;;;6276077;22;20058;-82
2022/04/20 01:59:09;;;;;;;3.50;1.33;;;5.00;99.90;;;;;;6250242;22;20020;-81
2022/04/20 02:04:20;;;;;;;2.15;1.20;;;4.90;99.90;;;;;;6277731;22;20077;-81
2022/04/20 02:06:45;;;;;;;3.83;1.20;;;4.80;99.90;;;;;;6278208;22;20388;-82
2022/04/20 02:09:11;;;;;;;4.13;1.05;;;4.80;99.90;;;;;;6277934;22;20016;-82
2022/04/20 02:11:37;;;;;;;2.05;1.20;;;4.80;99.90;;;;;;6277370;22;20024;-82
2022/04/20 02:14:02;;;;;;;1.85;0.95;;;4.80;99.90;;;;;;6277637;22;20024;-81
2022/04/20 02:16:28;;;;;;;4.05;1.42;;;4.70;99.90;;;;;;6277264;22;20065;-82
2022/04/20 02:18:54;;;;;;;2.25;0.98;;;4.70;99.90;;;;;;6277887;22;20023;-81
2022/04/20 02:21:19;;;;;;;2.20;1.10;;;5.40;99.90;;;;;;6250375;22;20098;-81
2022/04/20 02:23:45;;;;;;;1.73;1.02;;;4.60;99.90;;;;;;6277390;22;20055;-81
2022/04/20 02:26:11;;;;;;;2.17;1.20;;;4.60;99.90;;;;;;6250360;22;20019;-82
2022/04/20 02:28:39;;;;;;;2.95;1.23;;;4.60;99.90;;;;;;6277835;22;20240;-81
2022/04/20 02:31:05;;;;;;;2.17;1.10;;;4.60;99.90;;;;;;6277188;22;20403;-81
2022/04/20 02:33:30;;;;;;;2.00;1.05;;;4.50;99.90;;;;;;6250409;22;20099;-82
2022/04/20 02:35:57;;;;;;;3.53;1.00;;;4.90;99.90;;;;;;6277713;22;20023;-81
2022/04/20 02:38:23;;;;;;;2.00;1.20;;;5.30;99.90;;;;;;6278154;22;20048;-81
2022/04/20 02:40:51;;;;;;;1.73;0.90;;;4.50;99.90;;;;;;6278057;22;20016;-81
2022/04/20 02:43:16;;;;;;;1.98;1.00;;;4.90;99.90;;;;;;6277520;22;20103;-81
2022/04/20 02:45:42;;;;;;;2.15;1.25;;;4.50;99.90;;;;;;6250355;22;20051;-81
2022/04/20 02:48:09;;;;;;;3.03;1.20;;;4.50;99.90;;;;;;6251388;22;20480;-81
2022/04/20 02:50:35;;;;;;;1.67;1.00;;;4.50;99.90;;;;;;6278110;22;20016;-82
2022/04/20 02:53:01;;;;;;;2.40;1.13;;;4.40;99.90;;;;;;6250366;22;20094;-81
2022/04/20 02:55:27;;;;;;;1.08;0.80;;;4.40;99.90;;;;;;6250907;22;20469;-81
2022/04/20 02:57:52;;;;;;;3.30;1.60;;;4.40;99.90;;;;;;6280108;22;20067;-81
2022/04/20 03:00:18;;;;;;;2.83;1.27;;;4.60;99.90;;;;;;6277238;22;20385;-82
2022/04/20 03:02:43;;;;;;;1.73;1.00;;;4.40;99.90;;;;;;6249805;22;20035;-82
2022/04/20 03:05:09;;;;;;;1.75;1.23;;;4.90;99.90;;;;;;6277061;22;20052;-82
2022/04/20 03:07:35;;;;;;;1.88;0.90;;;4.40;99.90;;;;;;6249708;22;20065;-82
2022/04/20 03:10:02;;;;;;;2.13;1.20;;;5.10;99.90;;;;;;6276384;22;20098;-81
2022/04/20 03:12:28;;;;;;;3.42;1.00;;;4.40;99.90;;;;;;6277284;22;20019;-82
2022/04/20 03:14:54;;;;;;;1.60;0.98;;;4.50;99.90;;;;;;6277106;22;20030;-81
2022/04/20 03:17:24;;;;;;;1.55;1.10;;;4.40;99.90;;;;;;6277246;22;20011;-82
2022/04/20 03:19:50;;;;;;;2.22;0.90;;;4.40;99.90;;;;;;6276780;22;20062;-81
2022/04/20 03:22:16;;;;;;;1.50;0.93;;;4.40;99.90;;;;;;6277358;22;20052;-82
2022/04/20 03:24:42;;;;;;;2.95;1.20;;;4.40;99.90;;;;;;6276691;22;20343;-81
2022/04/20 03:27:07;;;;;;;1.80;1.00;;;4.40;99.90;;;;;;6276879;22;20031;-81
2022/04/20 03:29:34;;;;;;;5.13;1.25;;;4.40;99.90;;;;;;6249527;22;20434;-82
2022/04/20 03:32:07;;;;;;;1.92;1.10;;;4.90;99.90;;;;;;6277012;22;20109;-81
2022/04/20 03:34:33;;;;;;;2.25;1.00;;;4.40;99.90;;;;;;6276832;22;20022;-82
2022/04/20 03:36:58;;;;;;;1.50;0.90;;;4.40;99.90;;;;;;6276940;22;20051;-81
2022/04/20 03:39:24;;;;;;;1.27;0.80;;;4.40;99.90;;;;;;6276963;22;20015;-81
2022/04/20 03:41:50;;;;;;;2.33;1.20;;;4.50;99.90;;;;;;6277250;22;20020;-82
2022/04/20 03:44:15;;;;;;;1.42;0.90;;;4.40;99.90;;;;;;6277047;22;20434;-82
2022/04/20 03:46:41;;;;;;;2.60;1.10;;;4.40;99.90;;;;;;6276567;22;20150;-82
2022/04/20 03:49:07;;;;;;;2.17;0.90;;;4.40;99.90;;;;;;6276560;22;20051;-82
2022/04/20 03:51:32;;;;;;;1.63;0.90;;;4.40;99.90;;;;;;6249500;22;20112;-82
2022/04/20 03:53:58;;;;;;;4.72;1.02;;;4.40;99.90;;;;;;6249420;22;20012;-81
2022/04/20 03:56:24;;;;;;;1.13;0.80;;;4.40;99.90;;;;;;6276449;22;20389;-81
2022/04/20 03:58:49;;;;;;;1.42;0.80;;;5.00;99.90;;;;;;6249390;22;20047;-81
2022/04/20 04:01:16;;;;;;;1.38;0.80;;;4.40;99.90;;;;;;6276141;22;20099;-81
2022/04/20 04:03:42;;;;;;;1.25;0.75;;;4.60;99.90;;;;;;6276919;22;20015;-81
2022/04/20 04:06:07;;;;;;;3.55;1.00;;;4.40;99.90;;;;;;6276675;22;20506;-82
2022/04/20 04:08:33;;;;;;;2.20;1.20;;;4.40;99.90;;;;;;6276707;22;20012;-81
2022/04/20 04:10:59;;;;;;;1.65;0.90;;;4.40;99.90;;;;;;6276034;22;20446;-81
2022/04/20 04:13:27;;;;;;;1.60;1.00;;;4.40;99.90;;;;;;6276654;22;20023;-81
2022/04/20 04:15:53;;;;;;;2.78;1.10;;;4.40;99.90;;;;;;6276337;22;20027;-82
2022/04/20 04:18:18;;;;;;;1.27;0.80;;;4.30;99.90;;;;;;6276419;22;20015;-82
2022/04/20 04:20:44;;;;;;;2.58;0.90;;;4.30;99.90;;;;;;6275381;22;20035;-82
2022/04/20 04:23:10;;;;;;;1.25;0.80;;;4.60;99.90;;;;;;6276691;22;20012;-82
2022/04/20 04:25:35;;;;;;;1.42;1.10;;;4.30;99.90;;;;;;6276581;22;20527;-82
2022/04/20 04:28:01;;;;;;;1.75;1.00;;;4.30;99.90;;;;;;6249194;22;20461;-82
2022/04/20 04:30:27;;;;;;;3.15;1.55;;;4.30;99.90;;;;;;6276544;22;20024;-82
2022/04/20 04:32:53;;;;;;;3.53;1.10;;;4.20;99.90;;;;;;6276064;22;20030;-82
2022/04/20 04:35:19;;;;;;;3.35;1.20;;;4.20;99.90;;;;;;6276517;22;20028;-83
2022/04/20 04:37:45;;;;;;;2.30;1.33;;;4.20;99.90;;;;;;6248703;22;20016;-82
2022/04/20 04:40:11;;;;;;;1.92;1.17;;;4.20;99.90;;;;;;6276432;22;20442;-82
2022/04/20 04:42:37;;;;;;;2.45;1.08;;;4.20;99.90;;;;;;6276096;22;20022;-83
2022/04/20 04:50:31;;;;;;;1.80;1.23;;;4.70;99.90;;;;;;6275548;22;20020;-82
2022/04/20 04:52:57;;;;;;;2.17;0.85;;;4.50;99.90;;;;;;6276259;22;20375;-82
2022/04/20 04:55:23;;;;;;;1.90;1.13;;;4.10;99.90;;;;;;6248871;22;20102;-82
2022/04/20 04:57:49;;;;;;;2.03;1.13;;;4.10;99.90;;;;;;6276146;22;20316;-82
2022/04/20 05:00:14;;;;;;;3.30;0.90;;;4.10;99.90;;;;;;6248655;22;20027;-82
2022/04/20 05:02:40;;;;;;;1.55;0.90;;;4.50;99.90;;;;;;6275815;22;20012;-82
2022/04/20 05:05:06;;;;;;;1.33;0.70;;;4.20;99.90;;;;;;6248257;22;20020;-82
2022/04/20 05:07:31;;;;;;;1.63;0.85;;;4.20;99.90;;;;;;6276285;22;20011;-82
2022/04/20 05:09:57;;;;;;;1.17;0.77;;;4.20;99.90;;;;;;6276138;22;20016;-82
2022/04/20 05:12:22;;;;;;;2.28;1.10;;;4.20;99.90;;;;;;6276497;22;20087;-82
2022/04/20 05:14:48;;;;;;;2.08;0.80;;;4.30;99.90;;;;;;6276050;22;20370;-82
2022/04/20 05:17:14;;;;;;;1.40;0.90;;;4.30;99.90;;;;;;6278280;22;20078;-83
2022/04/20 05:19:39;;;;;;;2.25;1.00;;;4.30;99.90;;;;;;6253228;22;20024;-83
2022/04/20 05:22:05;;;;;;;2.78;1.00;;;4.60;99.90;;;;;;6276252;22;20022;-82
2022/04/20 05:24:31;;;;;;;1.77;0.82;;;4.40;99.90;;;;;;6276202;22;20011;-82
2022/04/20 05:26:58;;;;;;;1.13;0.80;;;4.40;99.90;;;;;;6275730;22;20428;-82
2022/04/20 05:29:23;;;;;;;1.70;1.00;;;4.40;99.90;;;;;;6248827;22;20497;-82
2022/04/20 05:31:52;;;;;;;2.15;1.10;;;4.50;99.90;;;;;;6275804;22;20053;-82
2022/04/20 05:34:18;;;;;;;1.63;0.98;;;4.60;99.90;;;;;;6251051;22;20346;-82
2022/04/20 05:42:12;;;;;;;1.85;0.90;;;4.80;99.90;;;;;;6250661;22;20389;-82
2022/04/20 05:44:38;;;;;;;2.60;0.70;;;4.90;99.90;;;;;;6278232;22;20023;-82
2022/04/20 05:47:03;;;;;;;1.60;0.90;;;5.00;99.90;;;;;;6250470;22;20031;-82
2022/04/20 05:49:29;;;;;;;3.05;0.90;;;5.20;99.90;;;;;;6250082;22;20030;-82
2022/04/20 05:51:55;;;;;;;1.65;1.02;;;5.30;99.90;;;;;;6278078;22;20020;-82
2022/04/20 05:54:21;;;;;;;3.67;1.25;;;5.40;99.90;;;;;;6277743;22;20094;-82
2022/04/20 05:56:47;;;;;;;2.22;1.48;;;5.50;99.90;;;;;;6277542;22;20016;-82
2022/04/20 05:59:12;;;;;;;3.33;1.30;;;5.70;99.90;;;;;;6278190;22;20089;-82
2022/04/20 06:01:38;;;;;;;2.58;1.63;;;6.10;99.90;;;;;;6278170;22;20015;-82
2022/04/20 06:04:04;;;;;;;2.33;1.50;;;6.00;99.90;;;;;;6250791;22;20023;-82
2022/04/20 06:06:30;;;;;;;3.10;1.70;;;6.20;99.90;;;;;;6250414;22;20076;-83
2022/04/20 06:08:56;;;;;;;2.80;1.83;;;6.30;99.90;;;;;;6277886;22;20098;-83
2022/04/20 06:11:22;;;;;;;3.75;1.70;;;6.90;99.90;;;;;;6277716;22;20024;-83
2022/04/20 06:13:48;;;;;;;4.93;1.50;;;6.60;99.90;;;;;;6277374;22;20465;-84
2022/04/20 06:16:13;;;;;;;2.63;1.38;;;6.80;99.90;;;;;;6250884;22;20031;-84
2022/04/20 06:18:39;;;;;;;2.65;1.50;;;7.30;99.90;;;;;;6250518;22;20023;-84
2022/04/20 06:21:05;;;;;;;5.25;1.70;;;7.50;99.90;;;;;;6277589;22;20019;-86
2022/04/20 06:23:31;;;;;;;3.22;1.70;;;7.30;99.90;;;;;;6278274;22;20322;-85
2022/04/20 06:25:57;;;;;;;5.25;1.60;;;7.40;99.90;;;;;;6250630;22;20020;-83
2022/04/20 06:28:25;;;;;;;3.22;1.38;;;8.10;99.90;;;;;;6277881;22;20323;-83
2022/04/20 06:30:52;;;;;;;5.13;1.50;;;7.70;99.90;;;;;;6278235;22;20020;-83
2022/04/20 06:33:18;;;;;;;3.35;1.80;;;7.90;99.90;;;;;;6278289;22;20016;-83
2022/04/20 06:35:44;;;;;;;2.33;1.50;;;8.00;99.90;;;;;;6221992;22;20445;-83
2022/04/20 06:38:10;;;;;;;3.63;1.83;;;8.60;99.90;;;;;;6250602;22;20020;-83
2022/04/20 06:40:36;;;;;;;3.33;2.00;;;8.90;99.90;;;;;;6277935;22;20073;-83
2022/04/20 06:43:01;;;;;;;3.72;1.30;;;9.10;99.90;;;;;;6277917;22;20030;-83
2022/04/20 06:45:27;;;;;;;2.55;1.17;;;8.50;99.90;;;;;;6250849;22;20019;-83
2022/04/20 06:47:57;;;;;;;5.32;2.00;;;9.40;99.90;;;;;;6278790;22;20074;-84
2022/04/20 06:50:23;;;;;;;2.92;1.35;;;8.80;99.90;;;;;;6278418;22;20019;-84
2022/04/20 06:58:32;;;;;;;2.53;1.70;;;9.20;99.90;;;;;;6277038;22;20531;-85
2022/04/20 07:00:59;;;;;;;2.47;1.60;;;9.30;99.90;;;;;;6277636;22;20027;-85
2022/04/20 07:03:24;;;;;;;3.88;2.03;;;9.80;99.90;;;;;;6277539;22;20075;-85
2022/04/20 07:05:50;;;;;;;2.58;1.50;;;9.50;99.90;;;;;;6277327;22;20051;-85
2022/04/20 07:08:16;;;;;;;1.95;1.10;;;9.90;99.90;;;;;;6276906;22;20015;-85
2022/04/20 07:10:42;;;;;;;1.70;1.20;;;10.40;99.90;;;;;;6277242;22;20024;-85
2022/04/20 07:13:08;;;;;;;2.85;1.60;;;10.30;99.90;;;;;;6250460;22;20095;-84
2022/04/20 07:15:33;;;;;;;2.40;1.30;;;9.80;99.90;;;;;;6249656;22;20024;-84
2022/04/20 07:17:59;;;;;;;2.28;1.75;;;10.70;99.90;;;;;;6277380;22;20069;-85
2022/04/20 07:20:25;;;;;;;3.20;1.23;;;10.70;99.90;;;;;;6276582;22;20451;-85
2022/04/20 07:22:51;;;;;;;2.38;1.40;;;10.20;99.90;;;;;;6277468;22;20074;-85
2022/04/20 07:25:17;;;;;;;2.83;1.48;;;10.30;99.90;;;;;;6277210;22;20059;-83
2022/04/20 07:27:48;;;;;;;3.90;1.77;;;10.40;99.90;;;;;;6276543;22;20537;-83
2022/04/20 07:30:14;;;;;;;3.17;1.65;;;10.50;99.90;;;;;;6250104;22;20465;-83
2022/04/20 07:32:40;;;;;;;3.40;2.00;;;10.90;99.90;;;;;;6277263;22;20016;-83
2022/04/20 07:35:06;;;;;;;4.05;2.00;;;11.30;99.90;;;;;;6276646;22;20049;-84
2022/04/20 07:37:32;;;;;;;2.97;1.63;;;10.90;99.90;;;;;;6276455;22;20015;-84
2022/04/20 07:39:57;;;;;;;3.90;2.10;;;11.20;99.90;;;;;;6276352;22;20504;-86
2022/04/20 07:42:24;;;;;;;6.55;1.88;;;11.20;99.90;;;;;;6274319;22;20216;-85
2022/04/20 07:44:50;;;;;;;2.75;1.33;;;11.20;99.90;;;;;;6277267;22;20016;-83
2022/04/20 07:47:16;;;;;;;2.10;1.30;;;11.30;99.90;;;;;;6276996;22;20065;-81
2022/04/20 07:52:26;;;;;;;3.28;1.63;;;11.50;99.90;;;;;;6278451;22;20027;-84
2022/04/20 07:55:15;;;;;;;2.67;1.20;;;11.50;99.90;;;;;;6275439;22;20023;-84
2022/04/20 07:57:45;;;;;;;2.72;1.42;;;11.70;99.90;;;;;;6254722;22;20142;-84
2022/04/20 08:00:14;;;;;;;2.13;1.20;;;11.70;99.90;;;;;;6277104;22;20008;-83
2022/04/20 08:02:41;;;;;;;2.03;1.10;;;11.40;99.90;;;;;;6276534;22;20023;-82
2022/04/20 08:05:08;;;;;;;3.20;1.23;;;12.00;99.90;;;;;;6277176;22;20090;-81
2022/04/20 08:07:35;;;;;;;2.65;1.45;;;12.20;99.90;;;;;;6276365;22;20028;-81
2022/04/20 08:10:03;;;;;;;3.00;1.13;;;12.20;99.90;;;;;;6276171;22;20026;-82
2022/04/20 08:12:38;;;;;;;3.05;1.05;;;12.40;99.90;;;;;;6276627;22;20023;-81
2022/04/20 08:15:04;;;;;;;4.32;1.35;;;12.50;99.90;;;;;;6276513;22;20019;-82
2022/04/20 08:17:31;;;;;;;2.95;1.38;;;12.70;99.90;;;;;;6275984;22;20028;-83
2022/04/20 08:19:57;;;;;;;1.92;0.90;;;12.70;99.90;;;;;;6275902;22;20020;-82
2022/04/20 08:22:24;;;;;;;4.07;1.33;;;12.80;99.90;;;;;;6276866;22;20027;-82
2022/04/20 08:24:50;;;;;;;4.03;1.20;;;13.00;99.90;;;;;;6276239;22;20058;-81
2022/04/20 08:27:16;;;;;;;2.13;0.85;;;13.10;99.90;;;;;;6276592;22;20016;-82
2022/04/20 08:29:42;;;;;;;3.22;0.98;;;13.20;99.90;;;;;;6276409;22;20335;-82
2022/04/20 08:32:09;;;;;;;1.20;0.80;;;13.40;98.10;;;;;;6275889;22;20345;-82
2022/04/20 08:34:35;;;;;;;2.47;0.90;;;13.50;97.70;;;;;;6276161;22;20050;-82
2022/04/20 08:37:01;;;;;;;1.40;0.80;;;13.60;97.60;;;;;;6276652;22;20054;-82
2022/04/20 08:39:27;;;;;;;1.50;0.70;;;13.90;95.60;;;;;;6275929;22;20339;-82
2022/04/20 08:41:54;;;;;;;2.08;0.73;;;13.80;94.10;;;;;;6276079;22;20026;-82
2022/04/20 08:44:28;;;;;;;1.85;0.75;;;13.90;92.10;;;;;;6249456;22;20015;-83
2022/04/20 08:46:59;;;;;;;1.20;0.70;;;14.00;92.40;;;;;;6276002;22;20026;-82
2022/04/20 08:49:24;;;;;;;1.67;0.85;;;14.10;92.00;;;;;;6275920;22;20019;-79
2022/04/20 08:54:36;;;;;;;1.07;0.60;;;14.30;85.60;;;;;;6276435;22;20019;-81
2022/04/20 08:57:19;;;;;;;1.10;0.70;;;14.30;85.80;;;;;;6276305;22;20258;-79
2022/04/20 08:59:48;;;;;;;1.92;0.60;;;14.40;89.70;;;;;;6275866;22;20061;-79
2022/04/20 09:02:16;;;;;;;1.25;0.40;;;14.60;85.80;;;;;;6276094;22;20019;-80
2022/04/20 09:04:42;;;;;;;1.35;0.70;;;14.70;86.60;;;;;;6276522;22;20030;-81
2022/04/20 09:07:09;;;;;;;1.42;0.52;;;14.70;82.10;;;;;;6276375;22;20015;-81
2022/04/20 09:09:35;;;;;;;1.52;0.60;;;14.80;85.40;;;;;;6276179;22;20023;-81
2022/04/20 09:12:02;;;;;;;1.25;0.60;;;15.00;85.80;;;;;;6248935;22;20354;-81
2022/04/20 09:14:31;;;;;;;1.58;0.40;;;15.00;80.20;;;;;;6276253;22;20051;-81
2022/04/20 09:16:57;;;;;;;0.95;0.50;;;15.10;79.30;;;;;;6276275;22;20066;-81
2022/04/20 09:19:26;;;;;;;0.93;0.40;;;15.10;77.70;;;;;;6275855;22;20323;-80
2022/04/20 09:21:52;;;;;;;1.05;0.52;;;15.20;75.40;;;;;;6276263;22;20019;-81
2022/04/20 09:24:18;;;;;;;1.63;0.55;;;15.20;73.60;;;;;;6275975;22;20034;-80
2022/04/20 09:26:57;;;;;;;0.88;0.50;;;15.30;75.00;;;;;;6276071;22;20334;-81
2022/04/20 09:29:23;;;;;;;0.85;0.40;;;15.30;74.10;;;;;;6276142;22;20024;-81
2022/04/20 09:31:51;;;;;;;2.22;0.45;;;15.40;75.30;;;;;;6249112;22;20027;-81
2022/04/20 09:34:29;;;;;;;2.25;0.40;;;15.60;73.20;;;;;;6276154;22;20024;-80
2022/04/20 09:36:55;;;;;;;1.88;0.40;;;15.70;72.90;;;;;;6248666;22;20078;-81
2022/04/20 09:39:21;;;;;;;2.75;0.60;;;15.80;70.30;;;;;;6248639;22;20077;-81
2022/04/20 09:42:02;;;;;;;1.08;0.50;;;15.80;69.60;;;;;;6248596;22;20020;-81
2022/04/20 09:44:29;;;;;;;0.95;0.50;;;16.10;70.90;;;;;;6275867;22;20020;-80
2022/04/20 09:49:57;;;;;;;1.08;0.52;;;16.10;70.40;;;;;;6275884;22;20069;-82
2022/04/20 09:52:25;;;;;;;0.43;0.32;;;16.00;69.00;;;;;;6275603;22;20347;-81
2022/04/20 09:54:54;;;;;;;1.05;0.50;;;16.00;69.30;;;;;;6275673;22;20529;-81
2022/04/20 09:57:21;;;;;;;1.20;0.50;;;16.10;69.00;;;;;;6275845;22;20020;-81
2022/04/20 10:00:13;;;;;;;1.10;0.40;;;16.20;69.80;;;;;;6276143;22;20138;-80
2022/04/20 10:02:52;;;;;;;0.88;0.40;;;16.30;67.30;;;;;;6123088;23;20022;-81
2022/04/20 10:05:20;;;;;;;0.80;0.50;;;16.30;69.90;;;;;;6098466;23;20388;-80
2022/04/20 10:07:49;;;;;;;0.50;0.40;;;16.30;68.20;;;;;;6098474;23;20025;-81
2022/04/20 10:10:15;;;;;;;0.98;0.50;;;16.50;68.40;;;;;;6123170;23;20029;-81
2022/04/20 10:12:42;;;;;;;0.88;0.45;;;16.50;67.30;;;;;;6123034;23;20049;-80
2022/04/20 10:17:56;;;;;;;1.67;0.70;;;16.60;70.20;;;;;;6123175;23;20021;-81
2022/04/20 10:20:25;;;;;;;0.63;0.43;;;16.50;67.50;;;;;;6100178;23;20036;-81
2022/04/20 10:22:52;;;;;;;1.23;0.63;;;16.60;69.70;;;;;;6124975;23;20351;-81
2022/04/20 10:25:17;;;;;;;1.10;0.50;;;16.70;67.20;;;;;;6124899;23;20033;-81
2022/04/20 10:27:58;;;;;;;0.47;0.43;;;16.60;68.00;;;;;;6124772;23;20030;-81
2022/04/20 10:30:44;;;;;;;1.95;0.60;;;16.60;69.40;;;;;;6124897;23;20033;-81
2022/04/20 10:33:19;;;;;;;0.70;0.40;;;16.70;68.50;;;;;;6100273;23;20022;-82
2022/04/20 10:35:55;;;;;;;0.90;0.50;;;17.00;70.40;;;;;;6125203;23;20029;-83
2022/04/20 10:38:21;;;;;;;0.50;0.38;;;17.10;69.90;;;;;;6125339;23;20022;-82
2022/04/20 10:41:02;;;;;;;0.90;0.38;;;17.30;67.40;;;;;;6257586;22;20071;-82
2022/04/20 10:43:29;;;;;;;3.08;0.50;;;17.30;68.50;;;;;;6290222;22;20354;-83
2022/04/20 10:46:16;;;;;;;0.75;0.35;;;17.30;64.20;;;;;;6279252;22;20027;-82
2022/04/20 10:49:07;;;;;;;1.13;0.60;;;17.30;65.20;;;;;;6282483;22;20040;-83
2022/04/20 10:51:42;;;;;;;0.20;0.20;;;17.40;65.50;;;;;;6278276;22;20024;-82
2022/04/20 10:54:17;;;;;;;;;;;17.50;64.00;;;;;;6278717;22;20027;-82
2022/04/20 10:57:01;;;;;;;0.80;0.30;;;17.40;62.70;;;;;;6277421;22;19915;-82
2022/04/20 10:59:28;;;;;;;1.33;0.50;;;17.50;65.00;;;;;;6278047;22;20099;-82
2022/04/20 11:02:03;;;;;;;0.90;0.50;;;17.60;66.50;;;;;;6277228;22;20023;-82
2022/04/20 11:04:39;;;;;;;0.63;0.30;;;17.80;66.00;;;;;;6277178;22;20485;-82
2022/04/20 11:07:06;;;;;;;2.13;0.47;;;17.90;67.10;;;;;;6250211;22;20476;-82
2022/04/20 11:09:48;;;;;;;0.73;0.40;;;17.70;65.40;;;;;;6277120;22;20020;-82
2022/04/20 11:21:12;;;;;;;1.02;0.30;;;18.20;65.50;;;;;;6249764;22;20023;-82
2022/04/20 11:24:05;;;;;;;0.40;0.28;;;18.10;65.70;;;;;;6249745;22;20065;-82
2022/04/20 11:26:39;;;;;;;1.27;0.57;;;18.30;62.20;;;;;;6277170;22;20020;-82
2022/04/20 11:29:19;;;;;;;0.70;0.30;;;18.20;61.10;;;;;;6277201;22;20020;-82
2022/04/20 11:31:57;;;;;;;1.15;0.50;;;18.10;61.60;;;;;;6276689;22;20016;-83
2022/04/20 11:34:51;;;;;;;0.70;0.40;;;18.10;62.60;;;;;;6276795;22;20390;-81
2022/04/20 11:37:17;;;;;;;1.48;0.40;;;18.30;63.50;;;;;;6249208;22;20028;-84
2022/04/20 11:39:45;;;;;;;0.40;0.30;;;18.40;62.00;;;;;;6275968;22;20453;-85
2022/04/20 11:42:11;;;;;;;1.38;0.40;;;18.30;62.20;;;;;;6277250;22;20030;-84
2022/04/20 11:44:42;;;;;;;0.60;0.30;;;18.40;63.20;;;;;;6277753;22;20016;-93
2022/04/20 11:47:12;;;;;;;0.43;0.28;;;18.50;66.50;;;;;;6285719;22;20024;-94
2022/04/20 11:49:49;;;;;;;0.98;0.50;;;18.70;62.40;;;;;;6286046;22;20027;-91
2022/04/20 11:52:26;;;;;;;0.63;0.20;;;18.90;61.90;;;;;;6279946;22;20054;-88
2022/04/20 11:54:51;;;;;;;0.68;0.30;;;18.90;64.40;;;;;;6280953;22;20026;-91
2022/04/20 11:57:17;;;;;;;0.63;0.28;;;19.00;62.60;;;;;;6250584;22;20027;-94
2022/04/20 11:59:45;;;;;;;0.70;0.30;;;18.90;61.20;;;;;;6277697;22;20039;-89
2022/04/20 12:02:13;;;;;;;0.38;0.22;;;18.70;60.00;;;;;;6277671;22;20031;-92
2022/04/20 12:04:39;;;;;;;0.60;0.20;;;18.80;61.70;;;;;;6249964;22;20027;-89
2022/04/20 12:07:05;;;;;;;0.82;0.22;;;18.70;61.70;;;;;;6250087;22;20449;-91
2022/04/20 12:09:36;;;;;;;0.65;0.30;;;18.80;61.60;;;;;;6224915;22;20038;-89
2022/04/20 12:12:08;;;;;;;0.98;0.20;;;18.90;62.20;;;;;;6276789;22;20073;-89
2022/04/20 12:14:40;;;;;;;0.40;0.25;;;18.90;61.00;;;;;;6276706;22;20019;-86
2022/04/20 12:17:26;;;;;;;0.85;0.20;;;18.90;61.40;;;;;;6276894;22;20442;-87
2022/04/20 12:19:53;;;;;;;0.47;0.30;;;19.00;62.90;;;;;;6275928;22;20101;-87
2022/04/20 12:22:21;;;;;;;3.00;0.30;;;19.20;62.30;;;;;;6249447;22;20685;-87
2022/04/20 12:25:14;;;;;;;0.88;0.30;;;19.30;61.50;;;;;;6276539;22;20070;-87
2022/04/20 12:27:53;;;;;;;0.75;0.38;;;19.30;62.30;;;;;;6276734;22;20102;-94
2022/04/20 12:30:49;;;;;;;0.50;0.28;;;19.20;62.80;;;;;;6276551;22;20469;-92
2022/04/20 12:33:24;;;;;;;1.80;0.30;;;19.20;61.30;;;;;;6124312;23;20021;-91
2022/04/20 12:36:11;;;;;;;0.80;0.43;;;19.20;63.20;;;;;;6099538;23;20057;-90
2022/04/20 12:39:09;;;;;;;0.52;0.35;;;19.20;61.40;;;;;;6102094;23;20026;-88
2022/04/20 12:41:46;;;;;;;2.97;0.70;;;19.20;63.30;;;;;;6066046;23;20030;-89
2022/04/20 12:44:52;;;;;;;1.55;0.75;;;19.10;68.00;;;;;;6066738;23;20427;-90
2022/04/20 12:47:21;;;;;;;1.47;0.93;;;19.10;69.40;;;;;;6065421;23;20026;-88
2022/04/20 12:49:52;;;;;;;1.52;0.90;;;19.00;69.40;;;;;;6065238;23;20019;-85
2022/04/20 12:52:19;;;;;;;1.85;1.02;;;18.90;71.80;;;;;;6041387;23;20027;-84
2022/04/20 12:54:57;;;;;;;3.45;0.95;;;18.80;74.40;;;;;;6065255;23;20014;-84
2022/04/20 13:03:06;;;;;;;1.55;1.00;;;18.80;73.50;;;;;;6066318;23;20070;-89
2022/04/20 13:05:42;;;;;;;1.63;1.13;;;18.80;73.10;;;;;;6065453;23;20026;-91
2022/04/20 13:08:10;;;;;;;1.63;0.88;;;18.80;74.30;;;;;;6064869;23;20137;-88
2022/04/20 13:10:46;;;;;;;2.90;1.30;;;18.70;76.30;;;;;;6197440;23;20035;-85
2022/04/20 13:13:11;;;;;;;2.13;1.20;;;18.30;76.00;;;;;;6212869;23;20021;-88
2022/04/20 13:18:41;;;;;;;3.10;1.00;;;18.60;77.40;;;;;;6095618;23;20104;-86
2022/04/20 13:21:09;;;;;;;2.42;0.93;;;18.60;76.30;;;;;;6098889;23;20029;-91
2022/04/20 13:23:42;;;;;;;4.03;1.75;;;18.60;77.50;;;;;;6123187;23;20020;-87
2022/04/20 13:28:58;;;;;;;2.35;1.20;;;18.20;74.60;;;;;;6122901;23;20022;-86
2022/04/20 13:31:24;;;;;;;2.20;1.20;;;18.40;75.10;;;;;;6097761;23;20057;-86
2022/04/20 13:33:49;;;;;;;5.30;1.33;;;18.20;75.20;;;;;;6122885;23;20022;-86
2022/04/20 13:36:15;;;;;;;2.38;1.00;;;18.10;75.70;;;;;;6093766;23;20021;-86
2022/04/20 13:38:41;;;;;;;2.40;1.25;;;18.20;77.30;;;;;;6123211;23;20018;-85
2022/04/20 13:41:07;;;;;;;1.88;1.02;;;18.00;76.30;;;;;;6098883;23;20032;-85
2022/04/20 13:43:33;;;;;;;2.00;0.90;;;17.90;77.80;;;;;;6124404;23;20405;-84
2022/04/20 13:45:59;;;;;;;1.35;0.80;;;17.80;79.80;;;;;;6125207;23;20053;-85
2022/04/20 13:48:24;;;;;;;2.55;0.82;;;17.90;79.30;;;;;;6123956;23;20033;-85
2022/04/20 13:50:50;;;;;;;5.45;1.17;;;18.20;77.90;;;;;;6122852;23;20089;-84